Time;durP1;ratioP1;P1;durP2;ratioP2;P2;SDS_P1;SDS_P2;PMS_P1;PMS_P2;Temp;Humidity;BMP_temperature;BMP_pressure;BME280_temperature;BME280_humidity;BME280_pressure;Samples;Min_cycle;Max_cycle;Signal;HPM_P1;HPM_P2
2022/02/17 00:00:43;;;;;;;42.03;26.73;;;;;;;;;;5051174;28;20071;-79
2022/02/17 00:03:10;;;;;;;42.70;29.73;;;;;;;;;;5051082;28;20487;-78
2022/02/17 00:05:37;;;;;;;32.75;23.77;;;;;;;;;;5052503;28;20017;-79
2022/02/17 00:08:03;;;;;;;42.45;25.90;;;;;;;;;;5053121;28;20021;-81
2022/02/17 00:10:30;;;;;;;47.00;29.45;;;;;;;;;;5052599;28;20013;-79
2022/02/17 00:12:57;;;;;;;29.33;20.42;;;128.30;2252.80;;;;;;5053093;28;20549;-78
2022/02/17 00:15:27;;;;;;;30.35;20.48;;;128.00;2252.80;;;;;;5058141;28;20468;-80
2022/02/17 00:17:53;;;;;;;30.30;23.20;;;128.10;2252.80;;;;;;5054724;28;20036;-78
2022/02/17 00:20:19;;;;;;;30.35;20.98;;;;;;;;;;5053701;28;20091;-78
2022/02/17 00:22:45;;;;;;;31.35;19.75;;;;;;;;;;5052431;28;20017;-78
2022/02/17 00:25:12;;;;;;;34.55;23.08;;;128.10;2252.80;;;;;;5061300;28;20021;-78
2022/02/17 00:27:39;;;;;;;40.22;26.92;;;128.00;2252.80;;;;;;5060510;28;20021;-77
2022/02/17 00:30:07;;;;;;;36.10;25.70;;;103.30;2227.20;;;;;;5054960;28;20029;-78
2022/02/17 00:32:33;;;;;;;37.40;25.45;;;103.30;2227.20;;;;;;5052751;28;20033;-77
2022/02/17 00:34:58;;;;;;;38.05;25.58;;;103.30;2227.20;;;;;;5058698;28;20033;-76
2022/02/17 00:37:24;;;;;;;43.10;29.15;;;128.00;2252.80;;;;;;5057459;28;20029;-77
2022/02/17 00:39:50;;;;;;;37.55;25.50;;;;;;;;;;5052037;28;20021;-78
2022/02/17 00:42:16;;;;;;;41.05;24.67;;;;;;;;;;5050904;28;20480;-78
2022/02/17 00:44:43;;;;;;;48.05;26.85;;;103.20;2227.20;;;;;;5051347;28;20052;-78
2022/02/17 00:47:11;;;;;;;35.72;23.52;;;103.10;2227.20;;;;;;5050739;28;20107;-77
2022/02/17 00:49:37;;;;;;;58.15;30.63;;;103.10;2227.20;;;;;;5050735;28;20020;-78
2022/02/17 00:52:03;;;;;;;46.03;27.83;;;103.00;2227.20;;;;;;5051467;28;20098;-78
2022/02/17 00:54:29;;;;;;;40.20;27.00;;;103.00;2227.20;;;;;;5051740;28;20031;-77
2022/02/17 00:56:55;;;;;;;65.05;42.22;;;103.00;2227.20;;;;;;5051884;28;20029;-78
2022/02/17 00:59:20;;;;;;;55.50;36.10;;;103.00;2227.20;;;;;;5051410;28;20060;-77
2022/02/17 01:01:47;;;;;;;54.53;36.65;;;103.00;2227.20;;;;;;5071202;28;20029;-80
2022/02/17 01:04:17;;;;;;;50.75;33.60;;;103.00;2227.20;;;;;;5057810;28;20028;-81
2022/02/17 01:06:43;;;;;;;55.92;36.15;;;103.10;2227.20;;;;;;5084081;28;20090;-77
2022/02/17 01:09:10;;;;;;;52.40;35.08;;;103.00;2227.20;;;;;;5050371;28;20470;-78
2022/02/17 01:11:36;;;;;;;44.25;27.88;;;103.10;2227.20;;;;;;5051447;28;20086;-78
2022/02/17 01:14:03;;;;;;;47.67;30.65;;;102.90;2227.20;;;;;;5051567;28;20100;-78
2022/02/17 01:16:29;;;;;;;33.85;22.42;;;102.90;2227.20;;;;;;5037202;28;20025;-78
2022/02/17 01:18:55;;;;;;;19.95;14.23;;;;;;;;;;5053213;28;20029;-77
2022/02/17 01:21:21;;;;;;;28.88;20.73;;;;;;;;;;5050908;28;20017;-79
2022/02/17 01:23:47;;;;;;;33.63;24.45;;;;;;;;;;5050170;28;20102;-78
2022/02/17 01:26:13;;;;;;;34.13;22.13;;;;;;;;;;5030333;28;20017;-78
2022/02/17 01:28:40;;;;;;;39.70;28.77;;;;;;;;;;5043568;28;20407;-77
2022/02/17 01:31:06;;;;;;;48.20;33.40;;;;;;;;;;5051819;28;20017;-78
2022/02/17 01:33:32;;;;;;;44.22;28.55;;;;;;;;;;5051472;28;20029;-79
2022/02/17 01:35:58;;;;;;;42.97;29.88;;;;;;;;;;5049993;28;20029;-79
2022/02/17 01:38:24;;;;;;;43.42;27.85;;;;;;;;;;5049934;28;21067;-78
2022/02/17 01:40:53;;;;;;;39.50;24.38;;;;;;;;;;5050871;28;20017;-76
2022/02/17 01:43:19;;;;;;;46.63;32.97;;;;;;;;;;5050939;28;20021;-78
2022/02/17 01:45:45;;;;;;;46.03;26.77;;;;;;;;;;5050104;28;20056;-79
2022/02/17 01:48:12;;;;;;;43.55;29.10;;;;;;;;;;5049878;28;20021;-78
2022/02/17 01:50:41;;;;;;;50.58;29.40;;;;;;;;;;5049980;28;20530;-79
2022/02/17 01:53:10;;;;;;;48.53;33.55;;;;;;;;;;5051063;28;20033;-78
2022/02/17 01:55:41;;;;;;;54.13;32.20;;;;;;;;;;5051156;28;20021;-77
2022/02/17 01:58:07;;;;;;;49.58;32.60;;;;;;;;;;5051273;28;20056;-77
2022/02/17 02:00:33;;;;;;;53.53;35.30;;;;;;;;;;5043071;28;20050;-76
2022/02/17 02:03:00;;;;;;;42.58;26.33;;;;;;;;;;5052735;28;20013;-77
2022/02/17 02:05:26;;;;;;;43.58;26.48;;;;;;;;;;5053582;28;20047;-78
2022/02/17 02:07:52;;;;;;;37.75;23.77;;;;;;;;;;5054402;28;20044;-77
2022/02/17 02:10:19;;;;;;;39.28;25.70;;;;;;;;;;5053415;28;20053;-77
2022/02/17 02:12:45;;;;;;;34.92;23.20;;;;;;;;;;5053298;28;20312;-78
2022/02/17 02:15:11;;;;;;;35.80;23.88;;;;;;;;;;5053435;28;20025;-77
2022/02/17 02:17:38;;;;;;;47.38;32.33;;;;;;;;;;5054573;28;20017;-77
2022/02/17 02:20:06;;;;;;;36.72;26.83;;;;;;;;;;5053406;28;20476;-78
2022/02/17 02:22:33;;;;;;;44.03;29.42;;;;;;;;;;5054684;28;20079;-76
2022/02/17 02:24:59;;;;;;;40.90;27.55;;;;;;;;;;5054473;28;20032;-78
2022/02/17 02:27:26;;;;;;;41.33;27.38;;;;;;;;;;5053253;28;20029;-78
2022/02/17 02:29:52;;;;;;;40.25;26.52;;;;;;;;;;5054447;28;20021;-77
2022/02/17 02:32:18;;;;;;;40.22;22.77;;;;;;;;;;5054327;28;20032;-77
2022/02/17 02:34:44;;;;;;;38.00;25.92;;;;;;;;;;5054290;28;20025;-78
2022/02/17 02:37:10;;;;;;;41.95;25.67;;;;;;;;;;5054351;28;20017;-76
2022/02/17 02:39:36;;;;;;;37.45;24.17;;;;;;;;;;5053867;28;20025;-77
2022/02/17 02:42:03;;;;;;;36.72;23.52;;;;;;;;;;5054194;28;20017;-77
2022/02/17 02:44:30;;;;;;;48.55;31.13;;;;;;;;;;5054193;28;20017;-77
2022/02/17 02:46:56;;;;;;;36.10;21.98;;;;;;;;;;5054021;28;20021;-76
2022/02/17 02:49:22;;;;;;;47.53;29.65;;;;;;;;;;5052870;28;20032;-76
2022/02/17 02:51:48;;;;;;;35.03;24.20;;;;;;;;;;5053673;28;20033;-76
2022/02/17 02:54:14;;;;;;;39.63;26.75;;;;;;;;;;5054155;28;20032;-77
2022/02/17 02:56:40;;;;;;;40.50;28.27;;;;;;;;;;5052509;28;20515;-76
2022/02/17 02:59:06;;;;;;;44.88;30.15;;;;;;;;;;5053581;28;20498;-77
2022/02/17 03:01:32;;;;;;;48.13;30.17;;;;;;;;;;5052569;28;20021;-80
2022/02/17 03:03:59;;;;;;;46.65;28.60;;;;;;;;;;5052037;28;20103;-77
2022/02/17 03:06:28;;;;;;;41.97;28.23;;;;;;;;;;5047068;28;20458;-78
2022/02/17 03:08:54;;;;;;;53.85;30.52;;;;;;;;;;5047278;28;20052;-77
2022/02/17 03:11:20;;;;;;;39.00;23.58;;;;;;;;;;5052302;28;20063;-78
2022/02/17 03:13:47;;;;;;;35.40;22.08;;;;;;;;;;5052750;28;20028;-78
2022/02/17 03:16:13;;;;;;;35.80;20.95;;;;;;;;;;5053301;28;20090;-78
2022/02/17 03:18:39;;;;;;;35.47;23.55;;;;;;;;;;5052231;28;20488;-78
2022/02/17 03:21:05;;;;;;;36.63;21.65;;;;;;;;;;5052166;28;20025;-78
2022/02/17 03:23:32;;;;;;;34.97;22.33;;;;;;;;;;5053040;28;20014;-77
2022/02/17 03:25:58;;;;;;;39.25;23.63;;;;;;;;;;5052216;28;20442;-77
2022/02/17 03:28:24;;;;;;;43.90;26.75;;;;;;;;;;5062878;28;20033;-77
2022/02/17 03:30:50;;;;;;;34.55;24.15;;;;;;;;;;5045500;28;20020;-76
2022/02/17 03:33:16;;;;;;;32.72;21.83;;;;;;;;;;5047811;28;20119;-76
2022/02/17 03:35:42;;;;;;;35.30;23.17;;;;;;;;;;5052224;28;20017;-76
2022/02/17 03:38:08;;;;;;;35.20;24.00;;;;;;;;;;5053119;28;20060;-76
2022/02/17 03:40:36;;;;;;;35.67;23.75;;;;;;;;;;5044057;28;20403;-75
2022/02/17 03:43:02;;;;;;;41.78;25.23;;;;;;;;;;5047246;28;20021;-76
2022/02/17 03:45:28;;;;;;;34.75;22.58;;;;;;;;;;5051957;28;20064;-76
2022/02/17 03:47:54;;;;;;;32.00;20.80;;;;;;;;;;5039632;28;20112;-76
2022/02/17 03:50:20;;;;;;;29.90;21.13;;;;;;;;;;5051968;28;20021;-75
2022/02/17 03:52:46;;;;;;;38.35;22.23;;;;;;;;;;5052821;28;20025;-76
2022/02/17 03:55:12;;;;;;;31.50;19.90;;;;;;;;;;5051862;28;20100;-76
2022/02/17 03:57:38;;;;;;;30.40;21.95;;;;;;;;;;5051975;28;20403;-75
2022/02/17 04:00:04;;;;;;;33.95;20.00;;;;;;;;;;5052923;28;20080;-76
2022/02/17 04:02:30;;;;;;;35.88;23.35;;;;;;;;;;5053248;28;20021;-77
2022/02/17 04:04:56;;;;;;;43.90;26.73;;;;;;;;;;5053301;28;20070;-76
2022/02/17 04:07:22;;;;;;;46.80;27.65;;;;;;;;;;5052811;28;20033;-77
2022/02/17 04:09:48;;;;;;;42.00;26.40;;;;;;;;;;5051955;28;20021;-76
2022/02/17 04:12:15;;;;;;;44.75;26.80;;;;;;;;;;5052224;28;20442;-76
2022/02/17 04:14:41;;;;;;;39.58;25.90;;;;;;;;;;5051099;28;20028;-77
2022/02/17 04:17:07;;;;;;;59.95;35.00;;;;;;;;;;5052373;28;20132;-76
2022/02/17 04:19:33;;;;;;;54.25;34.88;;;;;;;;;;5050958;28;20013;-76
2022/02/17 04:21:59;;;;;;;56.25;35.47;;;;;;;;;;5052447;28;20096;-78
2022/02/17 04:24:25;;;;;;;64.82;39.45;;;;;;;;;;5050760;28;20028;-78
2022/02/17 04:26:51;;;;;;;64.10;38.28;;;;;;;;;;5051251;28;20522;-78
2022/02/17 04:29:17;;;;;;;68.20;37.53;;;;;;;;;;5052696;28;20016;-78
2022/02/17 04:31:43;;;;;;;79.07;43.08;;;;;;;;;;5051980;28;20488;-77
2022/02/17 04:34:09;;;;;;;122.25;82.95;;;;;;;;;;5050988;28;20388;-78
2022/02/17 04:36:35;;;;;;;79.88;49.45;;;;;;;;;;5047185;28;20040;-78
2022/02/17 04:39:01;;;;;;;93.95;55.90;;;;;;;;;;5050517;28;20021;-78
2022/02/17 04:44:12;;;;;;;76.93;45.35;;;;;;;;;;5052063;28;20106;-77
2022/02/17 04:46:38;;;;;;;94.82;46.05;;;;;;;;;;5051711;28;20021;-77
2022/02/17 04:49:04;;;;;;;75.97;43.28;;;;;;;;;;5052190;28;20024;-77
2022/02/17 04:51:30;;;;;;;78.55;44.22;;;;;;;;;;5051891;28;20025;-77
2022/02/17 04:53:56;;;;;;;79.72;47.15;;;;;;;;;;5051496;28;20049;-77
2022/02/17 04:56:22;;;;;;;81.28;45.97;;;;;;;;;;5051924;28;20086;-77
2022/02/17 04:58:48;;;;;;;68.82;41.92;;;;;;;;;;5051052;28;20541;-77
2022/02/17 05:01:14;;;;;;;70.65;41.97;;;;;;;;;;5050089;28;20048;-77
2022/02/17 05:03:42;;;;;;;73.93;44.83;;;;;;;;;;5048671;28;20072;-77
2022/02/17 05:06:08;;;;;;;77.30;48.53;;;;;;;;;;5050010;28;20067;-77
2022/02/17 05:08:34;;;;;;;106.45;54.45;;;;;;;;;;5050506;28;20075;-78
2022/02/17 05:11:01;;;;;;;120.20;66.50;;;;;;;;;;5051342;28;20017;-77
2022/02/17 05:13:27;;;;;;;85.35;49.65;;;;;;;;;;5051349;28;20035;-77
2022/02/17 05:15:53;;;;;;;108.78;59.80;;;;;;;;;;5050006;28;20017;-76
2022/02/17 05:18:20;;;;;;;99.20;57.08;;;;;;;;;;5050063;28;20017;-77
2022/02/17 05:20:46;;;;;;;114.15;62.13;;;;;;;;;;5051291;28;20507;-77
2022/02/17 05:23:12;;;;;;;111.50;60.28;;;;;;;;;;5037314;28;20460;-77
2022/02/17 05:25:38;;;;;;;121.68;58.38;;;;;;;;;;5039084;28;20374;-77
2022/02/17 05:28:05;;;;;;;115.30;61.28;;;;;;;;;;5049879;28;20384;-78
2022/02/17 05:30:43;;;;;;;90.97;53.78;;;;;;;;;;5040798;28;20033;-77
2022/02/17 05:33:13;;;;;;;90.00;56.80;;;;;;;;;;5049790;28;20037;-78
2022/02/17 05:35:39;;;;;;;90.90;57.72;;;;;;;;;;5040923;28;20168;-77
2022/02/17 05:38:06;;;;;;;78.50;51.45;;;;;;;;;;5051441;28;20017;-76
2022/02/17 05:40:32;;;;;;;84.78;58.08;;;;;;;;;;5055053;28;20408;-77
2022/02/17 05:42:58;;;;;;;83.38;52.15;;;;;;;;;;5053895;28;20029;-77
2022/02/17 05:45:25;;;;;;;86.18;51.17;;;;;;;;;;5070619;28;20023;-78
2022/02/17 05:47:52;;;;;;;83.22;51.55;;;;;;;;;;5053763;28;20021;-80
2022/02/17 05:50:18;;;;;;;102.45;58.38;;;;;;;;;;5053765;28;20017;-80
2022/02/17 05:52:44;;;;;;;141.05;78.78;;;;;;;;;;5054974;28;20029;-77
2022/02/17 05:55:11;;;;;;;176.50;102.53;;;;;;;;;;5054844;28;20025;-77
2022/02/17 05:57:37;;;;;;;143.00;83.38;;;;;;;;;;5054394;28;20043;-79
2022/02/17 06:00:03;;;;;;;172.43;94.68;;;;;;;;;;5052472;28;20102;-77
2022/02/17 06:02:29;;;;;;;90.15;55.35;;;;;;;;;;5052965;28;20108;-77
2022/02/17 06:04:55;;;;;;;74.75;48.28;;;;;;;;;;5052984;28;20116;-77
2022/02/17 06:07:21;;;;;;;130.80;77.30;;;;;;;;;;5051154;28;20021;-78
2022/02/17 06:09:48;;;;;;;164.50;94.88;;;;;;;;;;5052966;28;20021;-76
2022/02/17 06:12:14;;;;;;;118.15;77.40;;;;;;;;;;5054033;28;20078;-78
2022/02/17 06:14:40;;;;;;;114.93;71.55;;;;;;;;;;5053803;28;20480;-79
2022/02/17 06:17:06;;;;;;;110.15;74.53;;;;;;;;;;5054255;28;20471;-79
2022/02/17 06:19:32;;;;;;;109.60;67.95;;;;;;;;;;5054139;28;20147;-79
2022/02/17 06:21:59;;;;;;;104.18;66.72;;;;;;;;;;5049477;28;20060;-80
2022/02/17 06:24:25;;;;;;;109.82;61.55;;;;;;;;;;5053406;28;20068;-77
2022/02/17 06:26:51;;;;;;;90.60;60.45;;;;;;;;;;5052881;28;20025;-78
2022/02/17 06:29:17;;;;;;;74.28;50.20;;;;;;;;;;5049964;28;20025;-79
2022/02/17 06:31:44;;;;;;;138.43;77.35;;;;;;;;;;5046982;28;20235;-78
2022/02/17 06:34:10;;;;;;;97.03;60.28;;;;;;;;;;5039220;28;20539;-78
2022/02/17 06:36:36;;;;;;;87.85;55.08;;;;;;;;;;5053102;28;20028;-78
2022/02/17 06:39:02;;;;;;;77.40;51.50;;;;;;;;;;5054159;28;20063;-77
2022/02/17 06:41:29;;;;;;;71.00;50.13;;;;;;;;;;5042862;28;20026;-78
2022/02/17 06:43:55;;;;;;;75.20;50.70;;;;;;;;;;5050786;28;20538;-79
2022/02/17 06:46:21;;;;;;;74.18;47.75;;;;;;;;;;5042561;28;20490;-78
2022/02/17 06:48:47;;;;;;;86.30;52.78;;;;;;;;;;5052642;28;20049;-78
2022/02/17 06:51:13;;;;;;;91.40;61.08;;;;;;;;;;5046800;28;20017;-78
2022/02/17 06:53:39;;;;;;;92.25;61.53;;;;;;;;;;5053504;28;20071;-78
2022/02/17 06:56:06;;;;;;;88.75;58.33;;;;;;;;;;5052489;28;20013;-78
2022/02/17 06:58:33;;;;;;;96.63;60.40;;;;;;;;;;5042040;28;20017;-79
2022/02/17 07:00:59;;;;;;;89.18;60.28;;;;;;;;;;5051974;28;20409;-77
2022/02/17 07:03:25;;;;;;;100.18;67.50;;;;;;;;;;5044865;28;20024;-80
2022/02/17 07:05:51;;;;;;;95.90;70.15;;;;;;;;;;5052323;28;20124;-78
2022/02/17 07:08:18;;;;;;;103.82;68.20;;;;;;;;;;5053153;28;20066;-78
2022/02/17 07:10:56;;;;;;;99.57;65.50;;;;;;;;;;5052108;28;20029;-77
2022/02/17 07:13:22;;;;;;;115.03;74.70;;;;;;;;;;5052222;28;20094;-78
2022/02/17 07:15:49;;;;;;;109.78;70.97;;;;;;;;;;5051810;28;20021;-78
2022/02/17 07:18:15;;;;;;;136.50;88.10;;;;;;;;;;5052133;28;20380;-79
2022/02/17 07:20:43;;;;;;;143.95;91.15;;;;;;;;;;5039769;28;20026;-77
2022/02/17 07:23:10;;;;;;;141.65;91.25;;;;;;;;;;5052210;28;20027;-77
2022/02/17 07:25:36;;;;;;;142.35;87.28;;;;;;;;;;5053123;28;20025;-77
2022/02/17 07:28:02;;;;;;;139.75;93.63;;;;;;;;;;5052857;28;20074;-78
2022/02/17 07:30:28;;;;;;;173.55;106.70;;;;;;;;;;5051934;28;20025;-77
2022/02/17 07:32:54;;;;;;;153.18;104.47;;;;;;;;;;5053135;28;20037;-78
2022/02/17 07:35:20;;;;;;;164.85;120.47;;;;;;;;;;5053413;28;20017;-78
2022/02/17 07:37:46;;;;;;;150.45;119.00;;;;;;;;;;5051882;28;20052;-78
2022/02/17 07:40:15;;;;;;;160.23;116.65;;;;;;;;;;5046657;28;20025;-77
2022/02/17 07:42:43;;;;;;;153.02;112.95;;;;;;;;;;5044844;28;20017;-78
2022/02/17 07:45:09;;;;;;;151.23;108.43;;;;;;;;;;5038031;28;20129;-77
2022/02/17 07:47:36;;;;;;;133.65;95.80;;;;;;;;;;5053276;28;20020;-76
2022/02/17 07:50:02;;;;;;;124.05;89.07;;;;;;;;;;5052624;28;20032;-77
2022/02/17 07:52:28;;;;;;;126.10;84.43;;;;;;;;;;5052575;28;20388;-77
2022/02/17 07:54:54;;;;;;;103.38;75.13;;;;;;;;;;5051513;28;20020;-78
2022/02/17 07:57:20;;;;;;;111.72;74.28;;;;;;;;;;5052709;28;20025;-78
2022/02/17 07:59:46;;;;;;;107.78;73.93;;;;;;;;;;5051194;28;20053;-77
2022/02/17 08:02:12;;;;;;;105.00;76.32;;;;;;;;;;5047867;28;20018;-77
2022/02/17 08:04:39;;;;;;;106.95;80.22;;;;;;;;;;5050804;28;20025;-78
2022/02/17 08:07:06;;;;;;;104.32;77.65;;;;;;;;;;5052155;28;20048;-77
2022/02/17 08:09:32;;;;;;;121.88;87.07;;;;;;;;;;5052033;28;20062;-76
2022/02/17 08:11:58;;;;;;;116.68;74.53;;;;;;;;;;5050869;28;20037;-77
2022/02/17 08:14:24;;;;;;;111.97;68.78;;;;;;;;;;5051939;28;20476;-77
2022/02/17 08:16:50;;;;;;;79.50;56.67;;;;;;;;;;5052194;28;20028;-78
2022/02/17 08:19:17;;;;;;;68.55;51.25;;;;;;;;;;5051103;28;20572;-78
2022/02/17 08:21:43;;;;;;;72.60;52.53;;;;;;;;;;5050456;28;20051;-78
2022/02/17 08:24:10;;;;;;;59.83;43.85;;;;;;;;;;5052360;28;20021;-77
2022/02/17 08:26:36;;;;;;;62.95;36.30;;;;;;;;;;5037852;28;20021;-78
2022/02/17 08:29:02;;;;;;;63.40;36.03;;;;;;;;;;5051121;28;20096;-77
2022/02/17 08:31:28;;;;;;;53.33;37.40;;;;;;;;;;5050717;28;20017;-78
2022/02/17 08:33:55;;;;;;;61.45;36.35;;;;;;;;;;5051352;28;20028;-80
2022/02/17 08:36:22;;;;;;;37.08;29.73;;;;;;;;;;5051570;28;20013;-78
2022/02/17 08:38:48;;;;;;;58.67;38.30;;;;;;;;;;5051583;28;20029;-77
2022/02/17 08:41:14;;;;;;;54.67;33.88;;;;;;;;;;5050244;28;20241;-77
2022/02/17 08:43:40;;;;;;;49.53;34.78;;;;;;;;;;5051448;28;20009;-78
2022/02/17 08:46:06;;;;;;;53.80;35.13;;;;;;;;;;5051724;28;20059;-78
2022/02/17 08:48:32;;;;;;;62.78;35.22;;;;;;;;;;5051403;28;20017;-77
2022/02/17 08:50:59;;;;;;;56.42;38.95;;;;;;;;;;5051341;28;20108;-78
2022/02/17 08:53:25;;;;;;;46.67;33.72;;;;;;;;;;5051075;28;20025;-79
2022/02/17 08:55:51;;;;;;;45.50;34.53;;;;;;;;;;5051507;28;20375;-79
2022/02/17 08:58:17;;;;;;;46.05;32.22;;;;;;;;;;5051159;28;20016;-77
2022/02/17 09:00:43;;;;;;;40.83;31.55;;;;;;;;;;5051168;28;20128;-77
2022/02/17 09:03:11;;;;;;;46.40;28.58;;;;;;;;;;5049613;28;20480;-76
2022/02/17 09:05:41;;;;;;;40.58;28.42;;;;;;;;;;5049789;28;20108;-77
2022/02/17 09:08:09;;;;;;;41.38;28.95;;;;;;;;;;5051046;28;20071;-75
2022/02/17 09:10:36;;;;;;;47.15;32.05;;;;;;;;;;5048002;28;20017;-77
2022/02/17 09:13:03;;;;;;;42.83;25.95;;;;;;;;;;5050995;28;20114;-78
2022/02/17 09:15:29;;;;;;;63.60;36.72;;;;;;;;;;5049519;28;20032;-76
2022/02/17 09:17:55;;;;;;;47.53;34.05;;;;;;;;;;5051214;28;20017;-75
2022/02/17 09:20:21;;;;;;;55.15;33.03;;;;;;;;;;5050961;28;20032;-77
2022/02/17 09:22:48;;;;;;;35.65;26.77;;;;;;;;;;5050929;28;20086;-74
2022/02/17 09:25:14;;;;;;;37.90;27.20;;;;;;;;;;5036085;28;20030;-76
2022/02/17 09:27:41;;;;;;;39.90;25.77;;;;;;;;;;5053209;28;20023;-76
2022/02/17 09:30:08;;;;;;;35.80;25.02;;;;;;;;;;5051836;28;20494;-76
2022/02/17 09:32:34;;;;;;;38.28;25.17;;;;;;;;;;5049521;28;20079;-76
2022/02/17 09:35:01;;;;;;;37.13;23.83;;;;;;;;;;5051194;28;20025;-75
2022/02/17 09:37:27;;;;;;;33.25;23.00;;;;;;;;;;5051499;28;20013;-75
2022/02/17 09:39:53;;;;;;;43.72;26.20;;;;;;;;;;5051589;28;20032;-74
2022/02/17 09:42:19;;;;;;;36.08;25.73;;;;;;;;;;5045568;28;20017;-77
2022/02/17 09:44:45;;;;;;;50.67;30.80;;;;;;;;;;5042492;28;20029;-75
2022/02/17 09:47:12;;;;;;;40.20;27.73;;;;;;;;;;5051347;28;20396;-76
2022/02/17 09:49:42;;;;;;;55.25;27.45;;;;;;;;;;5050103;28;20397;-76
2022/02/17 09:52:13;;;;;;;42.17;30.80;;;;;;;;;;5035944;28;20061;-77
2022/02/17 09:54:40;;;;;;;39.97;30.40;;;;;;;;;;5050381;28;20017;-75
2022/02/17 09:57:06;;;;;;;59.03;34.58;;;;;;;;;;5049187;28;20025;-78
2022/02/17 09:59:32;;;;;;;74.30;38.70;;;;;;;;;;5050089;28;20523;-77
2022/02/17 10:02:02;;;;;;;66.10;42.00;;;;;;;;;;5050665;28;20017;-78
2022/02/17 10:04:29;;;;;;;44.22;28.73;;;;;;;;;;5049100;28;20017;-78
2022/02/17 10:06:56;;;;;;;46.58;30.25;;;;;;;;;;5050301;28;20485;-77
2022/02/17 10:09:24;;;;;;;47.80;28.73;;;;;;;;;;5050377;28;20021;-76
2022/02/17 10:11:51;;;;;;;48.03;30.42;;;;;;;;;;5049125;28;20044;-79
2022/02/17 10:14:19;;;;;;;58.08;32.97;;;;;;;;;;5046591;28;20427;-77
2022/02/17 10:16:54;;;;;;;54.35;31.30;;;;;;;;;;5050705;28;20021;-77
2022/02/17 10:19:21;;;;;;;79.70;40.80;;;;;;;;;;5048070;28;20033;-79
2022/02/17 10:21:47;;;;;;;62.13;38.47;;;;;;;;;;5051010;28;20057;-77
2022/02/17 10:24:32;;;;;;;58.53;35.25;;;;;;;;;;5055496;28;20484;-76
2022/02/17 10:27:03;;;;;;;51.40;34.00;;;;;;;;;;5055672;28;20025;-75
2022/02/17 10:29:29;;;;;;;54.20;35.58;;;;;;;;;;5056992;28;20021;-75
2022/02/17 10:32:12;;;;;;;53.80;35.83;;;;;;;;;;5053310;28;20400;-76
2022/02/17 10:34:39;;;;;;;62.78;38.90;;;;;;;;;;5051548;28;20108;-77
2022/02/17 10:37:05;;;;;;;84.25;46.58;;;;;;;;;;5053667;28;20092;-75
2022/02/17 10:39:36;;;;;;;73.30;45.60;;;;;;;;;;5054001;28;20053;-79
2022/02/17 10:42:04;;;;;;;69.35;46.10;;;;;;;;;;5052737;28;20483;-75
2022/02/17 10:44:45;;;;;;;73.80;50.58;;;;;;;;;;5053215;28;20470;-75
2022/02/17 10:47:23;;;;;;;78.18;53.67;;;;;;;;;;5053867;28;20060;-76
2022/02/17 10:49:52;;;;;;;79.63;51.70;;;;;;;;;;5054396;28;20049;-78
2022/02/17 10:52:29;;;;;;;68.18;42.20;;;;;;;;;;5053586;28;20108;-76
2022/02/17 10:55:13;;;;;;;80.82;59.78;;;;;;;;;;5051833;28;20025;-75
2022/02/17 10:57:40;;;;;;;64.72;41.20;;;;;;;;;;5032293;28;20079;-77
2022/02/17 11:00:16;;;;;;;75.38;45.70;;;;;;;;;;5049950;28;20052;-77
2022/02/17 11:02:43;;;;;;;79.82;46.03;;;;;;;;;;5053373;28;20021;-76
2022/02/17 11:05:09;;;;;;;58.90;35.70;;;;;;;;;;5051859;28;20021;-77
2022/02/17 11:07:42;;;;;;;56.10;37.33;;;;;;;;;;5053798;28;20017;-78
2022/02/17 11:10:09;;;;;;;53.60;38.25;;;;;;;;;;5053402;28;20071;-77
2022/02/17 11:12:35;;;;;;;54.78;39.33;;;;;;;;;;5039859;28;20056;-77
2022/02/17 11:15:05;;;;;;;50.78;38.15;;;;;;;;;;5053977;28;20017;-75
2022/02/17 11:17:34;;;;;;;74.60;52.22;;;;;;;;;;5051789;28;20013;-76
2022/02/17 11:20:01;;;;;;;57.08;42.63;;;;;;;;;;5053088;28;20043;-81
2022/02/17 11:22:27;;;;;;;64.05;40.75;;;;;;;;;;5052399;28;20025;-77
2022/02/17 11:24:54;;;;;;;54.40;41.13;;;;;;;;;;5052324;28;20035;-81
2022/02/17 11:27:21;;;;;;;47.55;32.50;;;;;;;;;;5051345;28;20532;-76
2022/02/17 11:29:47;;;;;;;48.03;34.42;;;;;;;;;;5051794;28;20468;-76
2022/02/17 11:32:19;;;;;;;58.92;34.15;;;;;;;;;;5046581;28;20554;-76
2022/02/17 11:34:49;;;;;;;59.45;37.78;;;;;;;;;;5051399;28;20025;-75
2022/02/17 11:37:21;;;;;;;63.38;43.03;;;;;;;;;;5053112;28;20013;-75
2022/02/17 11:40:07;;;;;;;57.50;45.08;;;;;;;;;;5053110;28;20025;-78
2022/02/17 11:42:37;;;;;;;56.40;39.65;;;;;;;;;;5039884;28;20025;-77
2022/02/17 11:45:15;;;;;;;64.63;35.38;;;;;;;;;;5052618;28;20051;-77
2022/02/17 11:47:50;;;;;;;54.40;34.03;;;;;;;;;;5046923;28;20056;-77
2022/02/17 11:50:50;;;;;;;65.60;39.17;;;;;;;;;;5051596;28;20396;-77
2022/02/17 11:53:23;;;;;;;50.13;26.92;;;;;;;;;;5025905;28;20037;-77
2022/02/17 11:55:49;;;;;;;39.13;27.58;;;;;;;;;;5051966;28;20064;-76
2022/02/17 11:58:34;;;;;;;43.03;26.85;;;;;;;;;;5051453;28;20025;-77
2022/02/17 12:01:20;;;;;;;39.65;25.10;;;;;;;;;;5044876;28;20465;-78
2022/02/17 12:04:02;;;;;;;120.82;69.93;;;;;;;;;;5043936;28;20112;-77
2022/02/17 12:06:47;;;;;;;117.95;69.00;;;;;;;;;;5063226;28;20036;-77
2022/02/17 12:09:44;;;;;;;45.17;31.48;;;;;;;;;;5050447;28;20024;-78
2022/02/17 12:12:16;;;;;;;39.72;27.30;;;;;;;;;;5064400;28;20455;-78
2022/02/17 12:14:46;;;;;;;51.88;29.02;;;;;;;;;;5050024;28;20534;-78
2022/02/17 12:17:12;;;;;;;45.10;28.40;;;;;;;;;;5047166;28;20087;-77
2022/02/17 12:19:38;;;;;;;39.63;26.50;;;;;;;;;;5049513;28;20017;-76
2022/02/17 12:22:08;;;;;;;54.83;34.65;;;;;;;;;;5048779;28;20449;-76
2022/02/17 12:24:34;;;;;;;55.20;32.78;;;;;;;;;;5051221;28;20028;-76
2022/02/17 12:27:00;;;;;;;37.67;27.48;;;;;;;;;;5050111;28;20017;-75
2022/02/17 12:29:33;;;;;;;37.40;21.60;;;;;;;;;;5050966;28;20096;-78
2022/02/17 12:32:00;;;;;;;30.02;24.52;;;;;;;;;;5049442;28;20159;-77
2022/02/17 12:34:26;;;;;;;29.65;24.85;;;;;;;;;;5048995;28;20028;-76
2022/02/17 12:36:53;;;;;;;31.35;24.77;;;486.70;1715.20;;;;;;5049556;28;20025;-77
2022/02/17 12:39:20;;;;;;;32.03;22.58;;;486.50;1715.20;;;;;;5047963;28;20029;-78
2022/02/17 12:42:15;;;;;;;30.95;21.60;;;487.10;1587.20;;;;;;5047985;28;20029;-77
2022/02/17 12:44:41;;;;;;;24.38;19.70;;;487.00;1638.40;;;;;;5040073;28;20076;-79
2022/02/17 12:47:08;;;;;;;29.95;20.48;;;;;;;;;;5048981;28;20032;-79
2022/02/17 12:49:35;;;;;;;30.33;20.58;;;;;;;;;;5047504;28;20502;-79
2022/02/17 12:52:08;;;;;;;30.27;19.33;;;;;;;;;;5049070;28;20060;-76
2022/02/17 12:54:35;;;;;;;25.40;21.52;;;;;;;;;;5048470;28;20059;-78
2022/02/17 12:57:10;;;;;;;24.50;19.42;;;;;;;;;;5051168;28;20017;-77
2022/02/17 12:59:37;;;;;;;30.45;21.13;;;;;;;;;;5050558;28;20417;-76
2022/02/17 13:02:04;;;;;;;26.52;19.25;;;;;;;;;;5050942;28;20021;-78
2022/02/17 13:04:31;;;;;;;31.02;22.75;;;;;;;;;;5050500;28;20472;-77
2022/02/17 13:07:01;;;;;;;34.33;21.50;;;;;;;;;;5050797;28;20166;-76
2022/02/17 13:09:28;;;;;;;31.25;20.88;;;;;;;;;;5050435;28;20025;-77
2022/02/17 13:12:04;;;;;;;24.15;20.67;;;;;;;;;;5049308;28;20033;-76
2022/02/17 13:14:41;;;;;;;36.65;19.52;;;;;;;;;;5049705;28;20470;-75
2022/02/17 13:17:08;;;;;;;43.28;24.77;;;;;;;;;;5050811;28;20017;-79
2022/02/17 13:19:38;;;;;;;37.03;24.08;;;;;;;;;;5047863;28;20025;-77
2022/02/17 13:22:07;;;;;;;36.83;20.70;;;;;;;;;;5050665;28;20162;-78
2022/02/17 13:24:34;;;;;;;34.03;23.98;;;;;;;;;;5050722;28;20087;-74
2022/02/17 13:27:12;;;;;;;43.78;23.17;;;;;;;;;;5051013;28;20017;-76
2022/02/17 13:29:56;;;;;;;26.63;20.23;;;;;;;;;;5048349;28;20477;-77
2022/02/17 13:32:23;;;;;;;20.77;17.15;;;;;;;;;;5049163;28;20127;-78
2022/02/17 13:34:49;;;;;;;33.72;22.02;;;;;;;;;;5050382;28;20017;-77
2022/02/17 13:37:18;;;;;;;59.85;28.15;;;;;;;;;;5050520;28;20017;-80
2022/02/17 13:39:57;;;;;;;26.05;19.92;;;;;;;;;;5050439;28;20013;-77
2022/02/17 13:42:23;;;;;;;26.20;17.60;;;;;;;;;;5041770;28;20444;-77
2022/02/17 13:44:51;;;;;;;42.53;20.38;;;;;;;;;;5031883;28;20017;-79
2022/02/17 13:47:18;;;;;;;29.00;21.00;;;;;;;;;;5049864;28;20013;-77
2022/02/17 13:50:01;;;;;;;36.47;20.77;;;;;;;;;;5049960;28;20029;-78
2022/02/17 13:52:30;;;;;;;33.65;18.30;;;;;;;;;;5036923;28;20119;-77
2022/02/17 13:54:57;;;;;;;36.67;20.20;;;;;;;;;;5050028;28;20017;-77
2022/02/17 13:57:27;;;;;;;43.88;19.33;;;;;;;;;;5052733;28;20039;-75
2022/02/17 14:00:00;;;;;;;33.88;16.45;;;;;;;;;;5055019;28;20072;-77
2022/02/17 14:02:27;;;;;;;37.88;21.25;;;;;;;;;;5053912;28;20021;-79
2022/02/17 14:05:07;;;;;;;34.00;19.45;;;;;;;;;;5044139;28;20108;-75
2022/02/17 14:07:33;;;;;;;44.28;19.63;;;;;;;;;;5054180;28;20021;-77